createdAt,value
2023-04-12T00:01:52.850Z,87.40
2023-04-12T00:06:50.112Z,87.00
2023-04-12T00:09:17.369Z,87.90
2023-04-12T00:11:44.396Z,88.10
2023-04-12T00:14:11.835Z,88.20
2023-04-12T00:16:39.121Z,88.10
2023-04-12T00:19:06.871Z,88.20
2023-04-12T00:21:33.974Z,88.40
2023-04-12T00:24:01.480Z,88.60
2023-04-12T00:26:28.532Z,89.00
2023-04-12T00:28:56.762Z,89.20
2023-04-12T00:31:24.033Z,89.50
2023-04-12T00:33:51.288Z,89.50
2023-04-12T00:36:18.579Z,89.90
2023-04-12T00:38:46.279Z,90.00
2023-04-12T00:41:13.561Z,90.10
2023-04-12T00:43:41.969Z,90.20
2023-04-12T00:46:10.013Z,90.20
2023-04-12T00:48:37.970Z,90.30
2023-04-12T00:51:06.695Z,90.40
2023-04-12T00:53:34.378Z,90.50
2023-04-12T00:56:01.923Z,90.50
2023-04-12T00:58:29.059Z,90.70
2023-04-12T01:00:57.365Z,90.90
2023-04-12T01:03:27.765Z,91.50
2023-04-12T01:06:14.057Z,91.20
2023-04-12T01:08:59.546Z,91.30
2023-04-12T01:11:26.855Z,91.50
2023-04-12T01:13:58.232Z,91.70
2023-04-12T01:16:31.191Z,91.90
2023-04-12T01:19:01.034Z,92.10
2023-04-12T01:21:49.284Z,92.30
2023-04-12T01:24:16.440Z,92.50
2023-04-12T01:26:43.680Z,92.60
2023-04-12T01:29:15.922Z,92.70
2023-04-12T01:34:12.008Z,92.80
2023-04-12T01:36:40.217Z,93.30
2023-04-12T01:39:08.654Z,93.40
2023-04-12T01:41:39.222Z,93.50
2023-04-12T01:44:06.827Z,93.70
2023-04-12T01:46:34.657Z,93.80
2023-04-12T01:49:02.032Z,93.90
2023-04-12T01:51:38.990Z,94.00
2023-04-12T01:54:12.066Z,94.00
2023-04-12T01:56:45.034Z,94.10
2023-04-12T01:59:14.326Z,94.20
2023-04-12T02:01:45.055Z,94.30
2023-04-12T02:04:13.151Z,94.40
2023-04-12T02:06:41.889Z,94.50
2023-04-12T02:09:13.067Z,94.60
2023-04-12T02:11:43.261Z,94.80
2023-04-12T02:14:11.301Z,94.90
2023-04-12T02:16:42.650Z,94.90
2023-04-12T02:19:10.801Z,95.00
2023-04-12T02:21:42.261Z,95.10
2023-04-12T02:24:09.968Z,95.20
2023-04-12T02:26:37.401Z,95.30
2023-04-12T02:29:09.292Z,95.60
2023-04-12T02:31:38.897Z,95.60
2023-04-12T02:34:09.355Z,95.60
2023-04-12T02:36:38.927Z,95.70
2023-04-12T02:39:07.903Z,95.70
2023-04-12T02:41:36.794Z,95.70
2023-04-12T02:44:11.784Z,95.90
2023-04-12T02:46:44.031Z,96.00
2023-04-12T02:49:11.738Z,96.10
2023-04-12T02:51:41.862Z,96.30
2023-04-12T02:54:10.428Z,96.40
2023-04-12T02:56:55.817Z,96.40
2023-04-12T02:59:39.534Z,96.40
2023-04-12T03:02:19.011Z,96.50
2023-04-12T03:04:53.828Z,96.70
2023-04-12T03:07:28.030Z,96.70
2023-04-12T03:09:55.566Z,96.80
2023-04-12T03:12:24.844Z,96.90
2023-04-12T03:15:24.027Z,97.00
2023-04-12T03:17:53.284Z,97.00
2023-04-12T03:20:25.382Z,97.10
2023-04-12T03:23:01.764Z,97.20
2023-04-12T03:25:31.405Z,97.30
2023-04-12T03:28:07.597Z,97.30
2023-04-12T03:30:48.469Z,97.50
2023-04-12T03:33:18.582Z,97.50
2023-04-12T03:35:46.877Z,97.60
2023-04-12T03:38:15.442Z,97.60
2023-04-12T03:40:43.740Z,97.80
2023-04-12T03:43:10.729Z,97.90
2023-04-12T03:45:38.063Z,97.90
2023-04-12T03:48:06.360Z,97.80
2023-04-12T03:50:48.546Z,97.90
2023-04-12T03:53:21.470Z,97.90
2023-04-12T03:55:48.997Z,97.80
2023-04-12T03:58:16.650Z,97.80
2023-04-12T04:00:46.791Z,97.80
2023-04-12T04:03:14.738Z,97.80
2023-04-12T04:05:52.052Z,97.80
2023-04-12T04:08:21.057Z,97.90
2023-04-12T04:10:52.567Z,97.90
2023-04-12T04:13:22.721Z,97.90
2023-04-12T04:16:03.012Z,98.00
2023-04-12T04:18:30.527Z,98.00
2023-04-12T04:20:58.845Z,98.00
2023-04-12T04:23:29.418Z,98.00
2023-04-12T04:25:58.158Z,98.00
2023-04-12T04:28:25.647Z,98.00
2023-04-12T04:30:55.886Z,98.00
2023-04-12T04:33:24.539Z,98.00
2023-04-12T04:35:56.613Z,98.20
2023-04-12T04:38:28.585Z,98.20
2023-04-12T04:41:05.396Z,98.20
2023-04-12T04:43:51.269Z,98.20
2023-04-12T04:46:22.107Z,98.10
2023-04-12T04:48:50.274Z,98.00
2023-04-12T04:51:17.552Z,97.90
2023-04-12T04:53:45.429Z,97.90
2023-04-12T04:56:14.553Z,97.80
2023-04-12T04:58:43.495Z,97.80
2023-04-12T05:01:13.743Z,97.70
2023-04-12T05:03:41.991Z,97.50
2023-04-12T05:06:09.711Z,97.40
2023-04-12T05:08:38.462Z,97.30
2023-04-12T05:11:06.016Z,97.10
2023-04-12T05:13:33.129Z,96.80
2023-04-12T05:16:00.553Z,96.70
2023-04-12T05:18:27.550Z,96.60
2023-04-12T05:20:54.812Z,96.40
2023-04-12T05:23:22.078Z,96.40
2023-04-12T05:25:51.838Z,96.50
2023-04-12T05:28:20.748Z,96.50
2023-04-12T05:30:48.951Z,96.20
2023-04-12T05:33:20.935Z,96.00
2023-04-12T05:35:49.386Z,95.90
2023-04-12T05:38:16.811Z,95.90
2023-04-12T05:40:50.199Z,95.80
2023-04-12T05:43:22.644Z,95.70
2023-04-12T05:45:51.276Z,95.70
2023-04-12T05:48:21.750Z,95.50
2023-04-12T05:50:52.822Z,95.30
2023-04-12T05:53:21.876Z,95.10
2023-04-12T05:55:49.230Z,95.00
2023-04-12T05:58:18.445Z,94.80
2023-04-12T06:00:49.806Z,94.70
2023-04-12T06:03:17.331Z,94.60
2023-04-12T06:05:47.081Z,94.40
2023-04-12T06:08:15.029Z,94.40
2023-04-12T06:10:42.741Z,94.10
2023-04-12T06:13:09.863Z,94.00
2023-04-12T06:15:41.316Z,93.90
2023-04-12T06:18:08.900Z,93.90
2023-04-12T06:20:38.906Z,93.70
2023-04-12T06:23:06.706Z,93.50
2023-04-12T06:25:34.990Z,93.40
2023-04-12T06:28:02.784Z,93.30
2023-04-12T06:30:30.839Z,93.10
2023-04-12T06:32:58.046Z,92.80
2023-04-12T06:35:25.111Z,92.50
2023-04-12T06:37:52.183Z,92.20
2023-04-12T06:40:19.696Z,92.00
2023-04-12T06:42:49.201Z,91.80
2023-04-12T06:45:22.236Z,91.60
2023-04-12T06:47:49.343Z,91.60
2023-04-12T06:50:18.604Z,91.60
2023-04-12T06:52:45.854Z,91.20
2023-04-12T06:55:13.045Z,91.00
2023-04-12T06:57:42.053Z,90.50
2023-04-12T07:42:02.191Z,68.00
2023-04-12T07:44:31.094Z,68.50
2023-04-12T07:46:58.135Z,66.30
2023-04-12T07:49:25.237Z,65.10
2023-04-12T07:51:52.498Z,63.70
2023-04-12T07:54:20.445Z,61.90
2023-04-12T07:56:58.625Z,60.20
2023-04-12T07:59:25.692Z,59.60
2023-04-12T08:01:52.744Z,58.40
2023-04-12T08:04:19.966Z,56.60
2023-04-12T08:06:47.089Z,54.80
2023-04-12T08:09:14.147Z,55.00
2023-04-12T08:11:41.150Z,53.70
2023-04-12T08:14:08.093Z,52.70
2023-04-12T08:16:35.147Z,52.20
2023-04-12T08:19:02.342Z,51.10
2023-04-12T08:21:30.245Z,50.80
2023-04-12T08:23:57.678Z,51.50
2023-04-12T08:26:26.697Z,52.70
2023-04-12T08:28:53.779Z,54.30
2023-04-12T08:31:22.200Z,55.90
2023-04-12T08:33:49.353Z,56.40
2023-04-12T08:36:16.824Z,56.50
2023-04-12T08:38:46.207Z,56.10
2023-04-12T08:41:14.790Z,55.70
2023-04-12T08:43:44.833Z,56.00
2023-04-12T08:46:15.674Z,56.40
2023-04-12T08:48:45.681Z,55.70
2023-04-12T08:51:19.676Z,55.20
2023-04-12T08:53:46.841Z,55.10
2023-04-12T08:56:14.773Z,54.50
2023-04-12T08:58:43.034Z,52.00
2023-04-12T09:01:15.117Z,52.40
2023-04-12T09:03:43.165Z,53.30
2023-04-12T09:06:11.038Z,54.00
2023-04-12T09:08:38.393Z,53.50
2023-04-12T09:11:28.926Z,51.90
2023-04-12T09:13:56.632Z,50.70
2023-04-12T09:16:40.446Z,50.90
2023-04-12T09:19:08.191Z,50.40
2023-04-12T09:21:36.105Z,50.50
2023-04-12T09:24:13.387Z,51.60
2023-04-12T09:26:42.162Z,52.50
2023-04-12T09:29:22.283Z,51.80
2023-04-12T09:32:15.838Z,51.20
2023-04-12T09:34:54.758Z,50.80
2023-04-12T09:37:21.900Z,50.10
2023-04-12T09:39:58.600Z,50.30
2023-04-12T09:42:33.832Z,49.50
2023-04-12T09:45:18.507Z,48.60
2023-04-12T09:47:45.630Z,49.20
2023-04-12T09:50:20.134Z,49.60
2023-04-12T09:52:47.433Z,49.60
2023-04-12T09:55:24.458Z,49.40
2023-04-12T09:57:52.720Z,49.10
2023-04-12T10:00:22.597Z,48.70
2023-04-12T10:02:52.299Z,48.70
2023-04-12T10:05:26.643Z,48.40
2023-04-12T10:07:55.281Z,48.30
2023-04-12T10:10:23.026Z,48.30
2023-04-12T10:12:50.715Z,47.70
2023-04-12T10:15:18.622Z,47.60
2023-04-12T10:17:51.751Z,47.60
2023-04-12T10:20:19.804Z,47.60
2023-04-12T10:22:50.726Z,48.40
2023-04-12T10:25:18.993Z,49.10
2023-04-12T10:27:46.724Z,48.10
2023-04-12T10:30:40.183Z,47.70
2023-04-12T10:33:08.544Z,47.60
2023-04-12T10:35:52.498Z,46.80
2023-04-12T10:38:19.784Z,46.50
2023-04-12T10:41:05.911Z,45.70
2023-04-12T10:43:33.012Z,45.30
2023-04-12T10:46:05.311Z,46.00
2023-04-12T10:48:39.688Z,48.10
2023-04-12T10:51:18.207Z,48.70
2023-04-12T10:53:47.011Z,49.50
2023-04-12T10:56:34.376Z,49.80
2023-04-12T10:59:03.208Z,49.90
2023-04-12T11:01:38.307Z,49.60
2023-04-12T11:04:20.619Z,49.90
2023-04-12T11:07:06.686Z,49.90
2023-04-12T11:09:42.741Z,49.40
2023-04-12T11:12:14.098Z,49.10
2023-04-12T11:14:44.301Z,49.80
2023-04-12T11:17:11.689Z,50.70
2023-04-12T11:19:42.777Z,51.00
2023-04-12T11:22:11.162Z,51.00
2023-04-12T11:24:58.764Z,51.30
2023-04-12T11:27:26.664Z,51.80
2023-04-12T11:29:55.769Z,52.00
2023-04-12T11:32:24.484Z,51.80
2023-04-12T11:34:51.605Z,51.80
2023-04-12T11:37:20.296Z,51.30
2023-04-12T11:39:47.681Z,51.10
2023-04-12T11:42:16.162Z,51.20
2023-04-12T11:47:17.522Z,52.20
2023-04-12T11:49:45.631Z,52.40
2023-04-12T11:52:13.214Z,51.90
2023-04-12T11:54:46.750Z,51.40
2023-04-12T11:57:15.067Z,51.40
2023-04-12T11:59:43.497Z,52.20
2023-04-12T12:02:21.980Z,52.50
2023-04-12T12:04:51.009Z,53.00
2023-04-12T12:07:19.232Z,53.30
2023-04-12T12:09:46.911Z,53.50
2023-04-12T12:12:14.188Z,53.70
2023-04-12T12:14:41.313Z,54.30
2023-04-12T12:17:12.151Z,54.80
2023-04-12T12:19:40.200Z,55.30
2023-04-12T12:22:10.497Z,55.90
2023-04-12T12:24:42.065Z,55.90
2023-04-12T12:27:10.658Z,55.90
2023-04-12T12:29:38.221Z,55.80
2023-04-12T12:32:15.104Z,55.50
2023-04-12T12:34:42.124Z,55.20
2023-04-12T12:37:10.746Z,55.20
2023-04-12T12:39:37.753Z,55.30
2023-04-12T12:42:06.501Z,53.80
2023-04-12T12:44:36.327Z,53.10
2023-04-12T12:47:14.116Z,51.80
2023-04-12T12:49:41.864Z,51.20
2023-04-12T12:52:08.940Z,51.20
2023-04-12T12:54:40.612Z,50.70
2023-04-12T12:57:09.049Z,50.30
2023-04-12T12:59:36.101Z,50.30
2023-04-12T13:02:03.698Z,50.00
2023-04-12T13:04:31.021Z,50.10
2023-04-12T13:06:58.211Z,50.00
2023-04-12T13:09:25.223Z,49.80
2023-04-12T13:11:52.524Z,49.10
2023-04-12T13:14:19.825Z,48.80
2023-04-12T13:16:49.345Z,47.90
2023-04-12T13:19:16.845Z,47.70
2023-04-12T13:21:43.995Z,47.80
2023-04-12T13:24:11.390Z,47.70
2023-04-12T13:26:38.634Z,48.00
2023-04-12T13:29:05.996Z,48.40
2023-04-12T13:31:34.604Z,48.70
2023-04-12T13:34:01.587Z,49.10
2023-04-12T13:36:30.046Z,49.60
2023-04-12T13:38:57.272Z,50.00
2023-04-12T13:41:24.805Z,50.00
2023-04-12T13:43:51.813Z,50.20
2023-04-12T13:46:19.330Z,50.20
2023-04-12T13:48:46.476Z,50.50
2023-04-12T13:51:13.765Z,50.80
2023-04-12T13:53:41.159Z,50.80
2023-04-12T13:56:08.558Z,50.80
2023-04-12T13:58:35.910Z,50.50
2023-04-12T14:01:03.114Z,50.90
2023-04-12T14:03:30.207Z,50.90
2023-04-12T14:05:57.643Z,50.40
2023-04-12T14:08:24.593Z,50.60
2023-04-12T14:10:51.910Z,51.20
2023-04-12T14:13:18.901Z,50.90
2023-04-12T14:15:46.219Z,51.00
2023-04-12T14:18:13.288Z,50.80
2023-04-12T14:20:40.458Z,50.90
2023-04-12T14:23:08.131Z,51.10
2023-04-12T14:25:37.364Z,51.20
2023-04-12T14:28:04.407Z,51.10
2023-04-12T14:30:31.618Z,51.40
2023-04-12T14:32:58.684Z,50.90
2023-04-12T14:35:25.964Z,50.50
2023-04-12T14:37:52.988Z,50.60
2023-04-12T14:40:20.092Z,50.60
2023-04-12T14:42:47.103Z,50.90
2023-04-12T14:45:14.928Z,50.40
2023-04-12T14:47:42.224Z,50.60
2023-04-12T14:50:09.693Z,50.70
2023-04-12T14:52:36.674Z,50.90
2023-04-12T14:55:04.087Z,51.10
2023-04-12T14:57:31.705Z,51.40
2023-04-12T14:59:58.785Z,51.70
2023-04-12T15:02:26.364Z,51.90
2023-04-12T15:04:53.667Z,52.10
2023-04-12T15:07:20.944Z,52.30
2023-04-12T15:09:47.884Z,52.50
2023-04-12T15:12:14.849Z,52.50
2023-04-12T15:14:42.067Z,52.40
2023-04-12T15:17:10.822Z,52.40
2023-04-12T15:19:37.797Z,52.60
2023-04-12T15:22:04.767Z,52.00
2023-04-12T15:24:31.892Z,52.10
2023-04-12T15:26:58.920Z,52.20
2023-04-12T15:29:28.895Z,52.40
2023-04-12T15:31:56.743Z,52.10
2023-04-12T15:34:25.327Z,52.50
2023-04-12T15:36:53.026Z,52.30
2023-04-12T15:39:20.528Z,52.50
2023-04-12T15:41:47.502Z,52.60
2023-04-12T15:44:14.531Z,52.20
2023-04-12T15:46:42.023Z,52.20
2023-04-12T15:49:09.581Z,52.20
2023-04-12T15:51:36.848Z,52.40
2023-04-12T15:54:05.686Z,52.40
2023-04-12T15:56:32.781Z,52.30
2023-04-12T15:59:01.357Z,51.90
2023-04-12T16:01:28.728Z,52.00
2023-04-12T16:03:55.871Z,52.00
2023-04-12T16:06:25.289Z,51.30
2023-04-12T16:08:54.581Z,51.40
2023-04-12T16:11:23.796Z,51.20
2023-04-12T16:13:51.566Z,51.00
2023-04-12T16:16:19.948Z,51.10
2023-04-12T16:18:47.368Z,50.90
2023-04-12T16:21:16.620Z,50.80
2023-04-12T16:23:44.487Z,50.90
2023-04-12T16:26:12.398Z,50.60
2023-04-12T16:28:42.951Z,50.60
2023-04-12T16:31:10.609Z,50.60
2023-04-12T16:33:37.788Z,50.40
2023-04-12T16:36:04.914Z,50.70
2023-04-12T16:38:32.347Z,50.80
2023-04-12T16:40:59.377Z,50.70
2023-04-12T16:43:26.615Z,50.80
2023-04-12T16:45:53.651Z,50.90
2023-04-12T16:48:22.930Z,51.00
2023-04-12T16:50:50.106Z,50.80
2023-04-12T16:53:17.407Z,50.60
2023-04-12T16:55:46.212Z,50.80
2023-04-12T16:58:14.385Z,50.90
2023-04-12T17:00:43.198Z,51.10
2023-04-12T17:03:11.740Z,50.80
2023-04-12T17:05:40.134Z,50.90
2023-04-12T17:08:09.627Z,50.80
2023-04-12T17:10:37.436Z,50.80
2023-04-12T17:13:04.862Z,50.90
2023-04-12T17:15:32.241Z,50.90
2023-04-12T17:18:07.355Z,51.00
2023-04-12T17:20:34.517Z,51.00
2023-04-12T17:23:03.252Z,51.60
2023-04-12T17:25:31.597Z,50.90
2023-04-12T17:27:59.779Z,51.20
2023-04-12T17:30:27.385Z,51.30
2023-04-12T17:33:02.293Z,52.00
2023-04-12T17:35:32.362Z,51.40
2023-04-12T17:38:00.414Z,51.60
2023-04-12T17:40:27.451Z,51.80
2023-04-12T17:42:56.125Z,51.80
2023-04-12T17:45:24.137Z,52.00
2023-04-12T17:47:55.798Z,52.30
2023-04-12T17:50:24.486Z,52.30
2023-04-12T17:52:52.003Z,52.50
2023-04-12T17:55:26.159Z,52.50
2023-04-12T17:57:54.723Z,52.80
2023-04-12T18:00:23.632Z,52.80
2023-04-12T18:02:56.206Z,53.20
2023-04-12T18:05:24.600Z,53.30
2023-04-12T18:07:57.459Z,53.40
2023-04-12T18:10:26.861Z,53.50
2023-04-12T18:12:54.175Z,53.80
2023-04-12T18:15:21.713Z,53.90
2023-04-12T18:17:48.846Z,54.00
2023-04-12T18:20:16.575Z,54.10
2023-04-12T18:22:45.237Z,54.20
2023-04-12T18:25:12.910Z,54.40
2023-04-12T18:27:40.240Z,54.40
2023-04-12T18:30:09.507Z,54.60
2023-04-12T18:32:36.844Z,54.80
2023-04-12T18:35:04.779Z,54.80
2023-04-12T18:37:31.985Z,55.00
2023-04-12T18:39:59.208Z,55.20
2023-04-12T18:42:26.404Z,55.30
2023-04-12T18:44:54.050Z,55.30
2023-04-12T18:47:21.537Z,55.40
2023-04-12T18:49:48.645Z,55.50
2023-04-12T18:52:16.097Z,55.50
2023-04-12T18:54:43.201Z,55.60
2023-04-12T18:57:10.774Z,55.70
2023-04-12T18:59:37.863Z,55.90
2023-04-12T19:02:05.217Z,56.00
2023-04-12T19:04:32.526Z,56.10
2023-04-12T19:06:59.778Z,56.20
2023-04-12T19:09:26.929Z,56.20
2023-04-12T19:11:56.469Z,56.30
2023-04-12T19:14:23.683Z,57.00
2023-04-12T19:16:51.728Z,56.30
2023-04-12T19:19:18.715Z,56.50
2023-04-12T19:21:46.063Z,56.60
2023-04-12T19:24:13.023Z,56.60
2023-04-12T19:26:46.945Z,56.70
2023-04-12T19:29:15.939Z,56.80
2023-04-12T19:31:47.682Z,57.50
2023-04-12T19:34:17.652Z,57.00
2023-04-12T19:36:45.922Z,57.10
2023-04-12T19:39:12.894Z,57.00
2023-04-12T19:41:39.860Z,56.80
2023-04-12T19:44:06.879Z,56.80
2023-04-12T19:46:34.454Z,57.00
2023-04-12T19:49:02.121Z,57.00
2023-04-12T19:51:30.979Z,57.20
2023-04-12T19:53:58.364Z,57.20
2023-04-12T19:56:27.543Z,57.30
2023-04-12T19:58:55.092Z,57.50
2023-04-12T20:01:31.665Z,57.60
2023-04-12T20:04:00.170Z,57.50
2023-04-12T20:06:28.896Z,57.60
2023-04-12T20:08:56.606Z,57.50
2023-04-12T20:11:24.370Z,57.70
2023-04-12T20:13:51.981Z,57.60
2023-04-12T20:16:19.697Z,57.60
2023-04-12T20:18:46.999Z,57.70
2023-04-12T20:21:13.953Z,57.90
2023-04-12T20:23:41.186Z,58.00
2023-04-12T20:26:08.906Z,58.10
2023-04-12T20:28:36.109Z,58.10
2023-04-12T20:31:04.592Z,58.20
2023-04-12T20:33:32.604Z,58.30
2023-04-12T20:35:59.719Z,58.20
2023-04-12T20:38:27.012Z,58.30
2023-04-12T20:40:54.839Z,58.40
2023-04-12T20:43:22.131Z,58.40
2023-04-12T20:45:50.768Z,58.20
2023-04-12T20:48:19.670Z,58.40
2023-04-12T20:50:46.833Z,58.30
2023-04-12T20:53:15.855Z,58.30
2023-04-12T20:55:43.043Z,58.20
2023-04-12T20:58:12.446Z,58.30
2023-04-12T21:00:39.574Z,58.20
2023-04-12T21:03:07.224Z,58.20
2023-04-12T21:05:34.674Z,58.40
2023-04-12T21:08:02.347Z,58.40
2023-04-12T21:10:29.525Z,58.40
2023-04-12T21:12:58.348Z,58.60
2023-04-12T21:15:25.506Z,58.80
2023-04-12T21:17:52.519Z,58.70
2023-04-12T21:20:19.929Z,58.80
2023-04-12T21:22:48.022Z,58.90
2023-04-12T21:25:16.746Z,58.80
2023-04-12T21:27:47.278Z,59.00
2023-04-12T21:30:16.758Z,59.10
2023-04-12T21:32:44.031Z,59.30
2023-04-12T21:35:11.441Z,59.20
2023-04-12T21:37:39.443Z,59.30
2023-04-12T21:40:10.089Z,59.40
2023-04-12T21:42:37.935Z,59.40
2023-04-12T21:45:05.614Z,59.50
2023-04-12T21:47:34.990Z,59.50
2023-04-12T21:50:02.255Z,59.40
2023-04-12T21:52:29.431Z,59.50
2023-04-12T21:54:56.384Z,59.60
2023-04-12T21:57:23.437Z,59.70
2023-04-12T21:59:50.411Z,59.70
2023-04-12T22:02:20.783Z,60.10
2023-04-12T22:04:48.072Z,60.20
2023-04-12T22:07:17.039Z,60.20
2023-04-12T22:09:44.949Z,60.20
2023-04-12T22:12:12.788Z,60.50
2023-04-12T22:14:46.740Z,60.50
2023-04-12T22:17:14.890Z,60.50
2023-04-12T22:19:42.148Z,60.80
2023-04-12T22:22:09.497Z,60.90
2023-04-12T22:24:38.895Z,61.10
2023-04-12T22:27:07.080Z,61.20
2023-04-12T22:29:34.394Z,61.40
2023-04-12T22:32:02.408Z,61.60
2023-04-12T22:34:29.746Z,61.80
2023-04-12T22:37:02.929Z,62.00
2023-04-12T22:39:31.804Z,62.30
2023-04-12T22:41:59.019Z,62.40
2023-04-12T22:44:26.975Z,62.50
2023-04-12T22:46:54.774Z,62.70
2023-04-12T22:49:25.865Z,62.70
2023-04-12T22:51:53.043Z,63.00
2023-04-12T22:54:20.105Z,63.20
2023-04-12T22:56:47.228Z,63.30
2023-04-12T22:59:18.727Z,63.30
2023-04-12T23:01:46.643Z,63.50
2023-04-12T23:04:14.771Z,63.70
2023-04-12T23:06:42.380Z,63.80
2023-04-12T23:09:10.461Z,63.80
2023-04-12T23:11:39.834Z,63.80
2023-04-12T23:14:07.896Z,63.80
2023-04-12T23:16:35.514Z,64.10
2023-04-12T23:19:05.344Z,64.30
2023-04-12T23:21:32.843Z,64.40
2023-04-12T23:23:59.954Z,64.40
2023-04-12T23:26:27.400Z,64.40
2023-04-12T23:28:54.361Z,64.60
2023-04-12T23:31:21.299Z,64.60
2023-04-12T23:33:50.682Z,64.60
2023-04-12T23:36:17.629Z,64.50
2023-04-12T23:38:44.839Z,64.50
2023-04-12T23:41:12.657Z,64.70
2023-04-12T23:43:39.772Z,64.80
2023-04-12T23:46:06.992Z,64.70
2023-04-12T23:48:35.028Z,64.70
2023-04-12T23:51:01.978Z,64.90
2023-04-12T23:53:28.988Z,64.70
2023-04-12T23:55:56.123Z,64.70
2023-04-12T23:58:26.154Z,64.70
